sensor_id;sensor_type;location;lat;lon;timestamp;P1;P2;P0
26185;PMS7003;20067;48.764;9.176;2022-10-30T00:00:26;15.50;14.00;8.00
26185;PMS7003;20067;48.764;9.176;2022-10-30T00:02:52;9.00;9.00;5.50
26185;PMS7003;20067;48.764;9.176;2022-10-30T00:05:18;11.25;10.25;5.00
26185;PMS7003;20067;48.764;9.176;2022-10-30T00:07:45;12.50;11.00;5.00
26185;PMS7003;20067;48.764;9.176;2022-10-30T00:10:11;13.25;11.00;7.25
26185;PMS7003;20067;48.764;9.176;2022-10-30T00:12:37;13.75;13.00;6.00
26185;PMS7003;20067;48.764;9.176;2022-10-30T00:15:03;11.75;10.50;6.00
26185;PMS7003;20067;48.764;9.176;2022-10-30T00:17:29;13.00;11.00;5.75
26185;PMS7003;20067;48.764;9.176;2022-10-30T00:19:55;12.00;11.00;6.00
26185;PMS7003;20067;48.764;9.176;2022-10-30T00:22:20;10.00;10.00;5.75
26185;PMS7003;20067;48.764;9.176;2022-10-30T00:24:46;10.75;10.25;5.00
26185;PMS7003;20067;48.764;9.176;2022-10-30T00:27:11;11.25;10.75;5.25
26185;PMS7003;20067;48.764;9.176;2022-10-30T00:29:37;12.00;10.50;6.00
26185;PMS7003;20067;48.764;9.176;2022-10-30T00:32:02;12.00;10.25;5.50
26185;PMS7003;20067;48.764;9.176;2022-10-30T00:34:28;12.75;9.75;5.00
26185;PMS7003;20067;48.764;9.176;2022-10-30T00:36:54;11.25;10.75;5.25
26185;PMS7003;20067;48.764;9.176;2022-10-30T00:39:19;9.25;9.25;3.75
26185;PMS7003;20067;48.764;9.176;2022-10-30T00:41:45;14.75;11.00;6.00
26185;PMS7003;20067;48.764;9.176;2022-10-30T00:49:45;10.25;10.00;5.00
26185;PMS7003;20067;48.764;9.176;2022-10-30T00:52:16;15.25;11.75;6.75
26185;PMS7003;20067;48.764;9.176;2022-10-30T00:54:43;10.50;9.50;5.00
26185;PMS7003;20067;48.764;9.176;2022-10-30T00:57:09;14.00;12.75;6.00
26185;PMS7003;20067;48.764;9.176;2022-10-30T00:59:35;11.50;10.50;5.50
26185;PMS7003;20067;48.764;9.176;2022-10-30T01:02:02;11.00;10.00;5.50
26185;PMS7003;20067;48.764;9.176;2022-10-30T01:04:29;9.00;9.00;5.00
26185;PMS7003;20067;48.764;9.176;2022-10-30T01:06:58;12.50;11.00;6.00
26185;PMS7003;20067;48.764;9.176;2022-10-30T01:09:26;13.50;10.50;5.25
26185;PMS7003;20067;48.764;9.176;2022-10-30T01:11:52;15.00;11.00;6.00
26185;PMS7003;20067;48.764;9.176;2022-10-30T01:14:17;13.75;13.00;7.00
26185;PMS7003;20067;48.764;9.176;2022-10-30T01:19:43;15.00;14.00;9.00
26185;PMS7003;20067;48.764;9.176;2022-10-30T01:25:10;24.75;21.00;13.25
26185;PMS7003;20067;48.764;9.176;2022-10-30T01:32:59;24.50;21.00;13.75
26185;PMS7003;20067;48.764;9.176;2022-10-30T01:38:49;26.00;21.00;12.50
26185;PMS7003;20067;48.764;9.176;2022-10-30T01:41:18;24.25;22.00;14.25
26185;PMS7003;20067;48.764;9.176;2022-10-30T01:43:44;26.50;22.00;14.00
26185;PMS7003;20067;48.764;9.176;2022-10-30T01:54:51;23.75;19.75;13.50
26185;PMS7003;20067;48.764;9.176;2022-10-30T01:57:39;26.25;24.00;15.00
26185;PMS7003;20067;48.764;9.176;2022-10-30T02:00:13;22.75;21.50;12.50
26185;PMS7003;20067;48.764;9.176;2022-10-30T02:02:41;29.75;23.25;13.50
26185;PMS7003;20067;48.764;9.176;2022-10-30T02:05:08;24.00;21.50;12.75
26185;PMS7003;20067;48.764;9.176;2022-10-30T02:07:37;24.75;20.50;13.00
26185;PMS7003;20067;48.764;9.176;2022-10-30T02:10:03;20.00;20.00;13.00
26185;PMS7003;20067;48.764;9.176;2022-10-30T02:12:29;22.50;20.75;12.75
26185;PMS7003;20067;48.764;9.176;2022-10-30T02:14:56;26.00;22.00;14.00
26185;PMS7003;20067;48.764;9.176;2022-10-30T02:17:24;23.75;20.50;13.00
26185;PMS7003;20067;48.764;9.176;2022-10-30T02:19:51;21.00;19.25;11.25
26185;PMS7003;20067;48.764;9.176;2022-10-30T02:22:17;23.00;19.50;12.75
26185;PMS7003;20067;48.764;9.176;2022-10-30T02:24:43;25.50;21.50;12.00
26185;PMS7003;20067;48.764;9.176;2022-10-30T02:27:09;21.50;17.50;12.00
26185;PMS7003;20067;48.764;9.176;2022-10-30T02:29:35;24.50;21.00;13.00
26185;PMS7003;20067;48.764;9.176;2022-10-30T02:32:01;24.25;21.00;10.25
26185;PMS7003;20067;48.764;9.176;2022-10-30T02:34:27;14.00;13.75;7.25
26185;PMS7003;20067;48.764;9.176;2022-10-30T02:36:53;17.00;17.00;9.50
26185;PMS7003;20067;48.764;9.176;2022-10-30T02:39:18;17.75;15.50;9.00
26185;PMS7003;20067;48.764;9.176;2022-10-30T02:41:45;24.75;21.25;13.50
26185;PMS7003;20067;48.764;9.176;2022-10-30T02:44:11;17.75;17.00;10.00
26185;PMS7003;20067;48.764;9.176;2022-10-30T02:46:37;15.25;15.25;9.50
26185;PMS7003;20067;48.764;9.176;2022-10-30T02:49:03;21.25;16.50;9.25
26185;PMS7003;20067;48.764;9.176;2022-10-30T02:51:31;18.00;17.00;9.50
26185;PMS7003;20067;48.764;9.176;2022-10-30T02:53:58;17.00;17.00;9.50
26185;PMS7003;20067;48.764;9.176;2022-10-30T02:56:24;11.50;11.50;6.50
26185;PMS7003;20067;48.764;9.176;2022-10-30T02:58:50;10.00;9.50;5.00
26185;PMS7003;20067;48.764;9.176;2022-10-30T03:01:17;11.75;11.25;6.00
26185;PMS7003;20067;48.764;9.176;2022-10-30T03:03:43;11.75;9.00;5.50
26185;PMS7003;20067;48.764;9.176;2022-10-30T03:06:11;13.25;12.25;7.25
26185;PMS7003;20067;48.764;9.176;2022-10-30T03:08:39;14.50;12.25;7.25
26185;PMS7003;20067;48.764;9.176;2022-10-30T03:11:10;13.50;13.00;7.50
26185;PMS7003;20067;48.764;9.176;2022-10-30T03:13:40;12.00;12.00;6.00
26185;PMS7003;20067;48.764;9.176;2022-10-30T03:16:08;14.25;11.75;6.00
26185;PMS7003;20067;48.764;9.176;2022-10-30T03:18:35;13.00;11.25;6.00
26185;PMS7003;20067;48.764;9.176;2022-10-30T03:21:03;10.00;10.00;5.00
26185;PMS7003;20067;48.764;9.176;2022-10-30T03:23:30;13.50;13.50;8.00
26185;PMS7003;20067;48.764;9.176;2022-10-30T03:25:57;14.00;13.50;6.75
26185;PMS7003;20067;48.764;9.176;2022-10-30T03:28:23;15.25;12.25;5.25
26185;PMS7003;20067;48.764;9.176;2022-10-30T03:30:51;17.00;17.00;8.75
26185;PMS7003;20067;48.764;9.176;2022-10-30T03:33:30;13.25;12.75;6.00
26185;PMS7003;20067;48.764;9.176;2022-10-30T03:35:56;17.00;14.25;8.00
26185;PMS7003;20067;48.764;9.176;2022-10-30T03:38:22;16.00;14.75;7.75
26185;PMS7003;20067;48.764;9.176;2022-10-30T03:40:47;12.50;12.00;6.00
26185;PMS7003;20067;48.764;9.176;2022-10-30T03:43:13;14.00;14.00;6.50
26185;PMS7003;20067;48.764;9.176;2022-10-30T03:45:39;14.25;11.75;5.25
26185;PMS7003;20067;48.764;9.176;2022-10-30T03:48:05;11.75;10.00;5.75
26185;PMS7003;20067;48.764;9.176;2022-10-30T03:50:30;13.50;12.50;6.00
26185;PMS7003;20067;48.764;9.176;2022-10-30T03:52:57;13.75;12.00;5.25
26185;PMS7003;20067;48.764;9.176;2022-10-30T03:55:23;13.00;12.00;6.00
26185;PMS7003;20067;48.764;9.176;2022-10-30T03:57:49;12.00;9.50;5.00
26185;PMS7003;20067;48.764;9.176;2022-10-30T04:00:15;15.75;14.00;6.00
26185;PMS7003;20067;48.764;9.176;2022-10-30T04:02:48;15.75;12.50;5.50
26185;PMS7003;20067;48.764;9.176;2022-10-30T04:05:16;16.50;13.00;6.00
26185;PMS7003;20067;48.764;9.176;2022-10-30T04:07:43;16.25;12.75;6.00
26185;PMS7003;20067;48.764;9.176;2022-10-30T04:10:09;11.50;11.25;6.00
26185;PMS7003;20067;48.764;9.176;2022-10-30T04:12:36;12.75;12.00;7.50
26185;PMS7003;20067;48.764;9.176;2022-10-30T04:15:02;16.00;12.00;6.00
26185;PMS7003;20067;48.764;9.176;2022-10-30T04:17:28;12.00;11.25;5.75
26185;PMS7003;20067;48.764;9.176;2022-10-30T04:19:54;15.00;15.00;8.00
26185;PMS7003;20067;48.764;9.176;2022-10-30T04:22:20;13.75;11.50;6.25
26185;PMS7003;20067;48.764;9.176;2022-10-30T04:24:45;14.75;12.50;6.75
26185;PMS7003;20067;48.764;9.176;2022-10-30T04:27:13;18.00;14.00;8.25
26185;PMS7003;20067;48.764;9.176;2022-10-30T04:29:39;13.75;13.50;8.00
26185;PMS7003;20067;48.764;9.176;2022-10-30T04:32:06;13.75;13.75;7.75
26185;PMS7003;20067;48.764;9.176;2022-10-30T04:34:35;13.25;12.00;7.00
26185;PMS7003;20067;48.764;9.176;2022-10-30T04:37:03;14.75;14.00;8.50
26185;PMS7003;20067;48.764;9.176;2022-10-30T04:39:29;15.25;14.75;8.25
26185;PMS7003;20067;48.764;9.176;2022-10-30T04:41:55;15.25;13.00;5.75
26185;PMS7003;20067;48.764;9.176;2022-10-30T04:44:20;15.50;12.75;6.00
26185;PMS7003;20067;48.764;9.176;2022-10-30T04:46:46;15.50;12.50;7.25
26185;PMS7003;20067;48.764;9.176;2022-10-30T04:49:11;14.50;11.50;5.00
26185;PMS7003;20067;48.764;9.176;2022-10-30T04:51:37;17.75;11.75;7.00
26185;PMS7003;20067;48.764;9.176;2022-10-30T04:54:03;16.00;12.50;7.75
26185;PMS7003;20067;48.764;9.176;2022-10-30T04:56:28;19.50;14.00;6.00
26185;PMS7003;20067;48.764;9.176;2022-10-30T04:58:54;12.00;11.75;6.50
26185;PMS7003;20067;48.764;9.176;2022-10-30T05:01:19;12.00;10.75;5.00
26185;PMS7003;20067;48.764;9.176;2022-10-30T05:03:45;12.00;10.50;5.00
26185;PMS7003;20067;48.764;9.176;2022-10-30T05:06:21;14.00;13.75;8.25
26185;PMS7003;20067;48.764;9.176;2022-10-30T05:08:49;13.00;11.75;5.75
26185;PMS7003;20067;48.764;9.176;2022-10-30T05:11:15;12.50;12.50;6.00
26185;PMS7003;20067;48.764;9.176;2022-10-30T05:13:41;14.75;14.00;8.00
26185;PMS7003;20067;48.764;9.176;2022-10-30T05:16:07;17.25;14.00;7.00
26185;PMS7003;20067;48.764;9.176;2022-10-30T05:18:33;21.25;14.75;8.00
26185;PMS7003;20067;48.764;9.176;2022-10-30T05:20:59;15.00;13.00;8.00
26185;PMS7003;20067;48.764;9.176;2022-10-30T05:23:25;14.25;12.00;7.00
26185;PMS7003;20067;48.764;9.176;2022-10-30T05:25:51;15.25;12.75;6.00
26185;PMS7003;20067;48.764;9.176;2022-10-30T05:28:16;11.75;11.75;7.00
26185;PMS7003;20067;48.764;9.176;2022-10-30T05:30:42;14.00;11.25;6.75
26185;PMS7003;20067;48.764;9.176;2022-10-30T05:33:09;16.00;15.00;7.00
26185;PMS7003;20067;48.764;9.176;2022-10-30T05:35:35;14.00;12.50;6.00
26185;PMS7003;20067;48.764;9.176;2022-10-30T05:38:03;14.75;14.00;7.00
26185;PMS7003;20067;48.764;9.176;2022-10-30T05:40:31;11.75;10.75;5.00
26185;PMS7003;20067;48.764;9.176;2022-10-30T05:42:57;14.50;13.00;8.00
26185;PMS7003;20067;48.764;9.176;2022-10-30T05:45:23;12.50;12.50;6.00
26185;PMS7003;20067;48.764;9.176;2022-10-30T05:47:56;13.25;13.25;8.00
26185;PMS7003;20067;48.764;9.176;2022-10-30T05:50:23;16.00;12.50;7.25
26185;PMS7003;20067;48.764;9.176;2022-10-30T05:52:53;16.00;13.00;8.00
26185;PMS7003;20067;48.764;9.176;2022-10-30T05:55:20;18.75;14.00;8.00
26185;PMS7003;20067;48.764;9.176;2022-10-30T05:57:46;12.25;11.75;6.00
26185;PMS7003;20067;48.764;9.176;2022-10-30T06:00:12;14.50;11.00;5.50
26185;PMS7003;20067;48.764;9.176;2022-10-30T06:02:38;12.00;11.00;7.00
26185;PMS7003;20067;48.764;9.176;2022-10-30T06:05:03;14.50;13.25;7.25
26185;PMS7003;20067;48.764;9.176;2022-10-30T06:07:29;18.50;13.25;7.25
26185;PMS7003;20067;48.764;9.176;2022-10-30T06:09:55;19.00;15.25;8.25
26185;PMS7003;20067;48.764;9.176;2022-10-30T06:12:20;18.75;14.75;8.00
26185;PMS7003;20067;48.764;9.176;2022-10-30T06:14:46;13.75;12.00;7.00
26185;PMS7003;20067;48.764;9.176;2022-10-30T06:17:11;13.75;13.00;8.00
26185;PMS7003;20067;48.764;9.176;2022-10-30T06:19:37;11.75;11.75;7.00
26185;PMS7003;20067;48.764;9.176;2022-10-30T06:22:03;18.50;14.25;8.00
26185;PMS7003;20067;48.764;9.176;2022-10-30T06:24:28;23.00;17.25;9.00
26185;PMS7003;20067;48.764;9.176;2022-10-30T06:26:54;19.75;16.75;8.00
26185;PMS7003;20067;48.764;9.176;2022-10-30T06:29:19;17.00;15.00;8.00
26185;PMS7003;20067;48.764;9.176;2022-10-30T06:31:45;17.00;15.50;8.75
26185;PMS7003;20067;48.764;9.176;2022-10-30T06:34:11;17.75;15.00;7.25
26185;PMS7003;20067;48.764;9.176;2022-10-30T06:36:36;19.75;15.00;8.50
26185;PMS7003;20067;48.764;9.176;2022-10-30T06:39:02;18.00;14.50;6.25
26185;PMS7003;20067;48.764;9.176;2022-10-30T06:41:27;15.25;14.25;8.00
26185;PMS7003;20067;48.764;9.176;2022-10-30T06:43:53;17.00;14.75;7.75
26185;PMS7003;20067;48.764;9.176;2022-10-30T06:46:19;12.00;12.00;7.75
26185;PMS7003;20067;48.764;9.176;2022-10-30T06:48:44;19.75;16.25;9.00
26185;PMS7003;20067;48.764;9.176;2022-10-30T06:51:10;12.00;12.00;7.00
26185;PMS7003;20067;48.764;9.176;2022-10-30T06:53:39;14.75;14.00;8.00
26185;PMS7003;20067;48.764;9.176;2022-10-30T06:56:05;13.50;11.50;6.25
26185;PMS7003;20067;48.764;9.176;2022-10-30T06:58:31;15.00;11.50;5.00
26185;PMS7003;20067;48.764;9.176;2022-10-30T07:01:02;15.75;13.25;8.00
26185;PMS7003;20067;48.764;9.176;2022-10-30T07:03:29;13.50;12.00;6.00
26185;PMS7003;20067;48.764;9.176;2022-10-30T07:05:55;15.25;13.25;8.00
26185;PMS7003;20067;48.764;9.176;2022-10-30T07:08:21;16.75;15.50;8.50
26185;PMS7003;20067;48.764;9.176;2022-10-30T07:10:47;13.25;13.25;8.50
26185;PMS7003;20067;48.764;9.176;2022-10-30T07:13:13;14.25;12.75;7.25
26185;PMS7003;20067;48.764;9.176;2022-10-30T07:15:38;18.50;17.25;9.75
26185;PMS7003;20067;48.764;9.176;2022-10-30T07:18:04;16.00;12.00;6.00
26185;PMS7003;20067;48.764;9.176;2022-10-30T07:20:30;13.25;13.25;7.75
26185;PMS7003;20067;48.764;9.176;2022-10-30T07:22:58;19.00;17.50;8.75
26185;PMS7003;20067;48.764;9.176;2022-10-30T07:25:24;14.50;14.50;7.75
26185;PMS7003;20067;48.764;9.176;2022-10-30T07:27:51;13.50;13.50;8.00
26185;PMS7003;20067;48.764;9.176;2022-10-30T07:30:18;18.00;15.00;9.00
26185;PMS7003;20067;48.764;9.176;2022-10-30T07:32:46;12.50;12.00;7.00
26185;PMS7003;20067;48.764;9.176;2022-10-30T07:35:21;16.00;15.25;7.75
26185;PMS7003;20067;48.764;9.176;2022-10-30T07:37:47;16.25;15.00;8.75
26185;PMS7003;20067;48.764;9.176;2022-10-30T07:40:13;14.25;13.00;8.00
26185;PMS7003;20067;48.764;9.176;2022-10-30T07:42:38;13.25;12.75;7.00
26185;PMS7003;20067;48.764;9.176;2022-10-30T07:45:04;15.75;13.25;6.00
26185;PMS7003;20067;48.764;9.176;2022-10-30T07:47:30;13.00;13.00;8.00
26185;PMS7003;20067;48.764;9.176;2022-10-30T07:49:56;17.00;14.00;9.00
26185;PMS7003;20067;48.764;9.176;2022-10-30T07:52:21;12.00;11.50;6.50
26185;PMS7003;20067;48.764;9.176;2022-10-30T07:54:47;15.00;13.75;7.00
26185;PMS7003;20067;48.764;9.176;2022-10-30T07:57:13;14.25;14.00;8.25
26185;PMS7003;20067;48.764;9.176;2022-10-30T07:59:38;17.00;10.75;6.00
26185;PMS7003;20067;48.764;9.176;2022-10-30T08:02:04;16.25;13.25;8.00
26185;PMS7003;20067;48.764;9.176;2022-10-30T08:04:30;16.50;14.00;8.00
26185;PMS7003;20067;48.764;9.176;2022-10-30T08:06:56;17.25;14.50;7.75
26185;PMS7003;20067;48.764;9.176;2022-10-30T08:09:22;14.25;13.50;5.50
26185;PMS7003;20067;48.764;9.176;2022-10-30T08:11:47;12.25;11.50;7.00
26185;PMS7003;20067;48.764;9.176;2022-10-30T08:14:13;15.25;12.50;6.75
26185;PMS7003;20067;48.764;9.176;2022-10-30T08:16:38;10.25;9.00;5.00
26185;PMS7003;20067;48.764;9.176;2022-10-30T08:19:04;12.25;10.75;6.50
26185;PMS7003;20067;48.764;9.176;2022-10-30T08:21:30;13.50;12.25;6.25
26185;PMS7003;20067;48.764;9.176;2022-10-30T08:23:56;11.50;10.00;5.50
26185;PMS7003;20067;48.764;9.176;2022-10-30T08:26:21;13.00;11.00;6.50
26185;PMS7003;20067;48.764;9.176;2022-10-30T08:28:47;12.00;11.50;5.25
26185;PMS7003;20067;48.764;9.176;2022-10-30T08:31:12;11.50;10.00;5.00
26185;PMS7003;20067;48.764;9.176;2022-10-30T08:33:38;11.50;11.50;5.25
26185;PMS7003;20067;48.764;9.176;2022-10-30T08:36:04;11.25;10.00;5.25
26185;PMS7003;20067;48.764;9.176;2022-10-30T08:38:31;15.75;13.75;7.75
26185;PMS7003;20067;48.764;9.176;2022-10-30T08:41:04;16.25;14.50;6.00
26185;PMS7003;20067;48.764;9.176;2022-10-30T08:43:30;12.00;11.25;5.25
26185;PMS7003;20067;48.764;9.176;2022-10-30T08:45:58;11.50;10.75;6.00
26185;PMS7003;20067;48.764;9.176;2022-10-30T08:48:25;12.50;11.50;6.00
26185;PMS7003;20067;48.764;9.176;2022-10-30T08:50:52;10.50;10.00;6.00
26185;PMS7003;20067;48.764;9.176;2022-10-30T08:53:22;13.75;11.25;5.50
26185;PMS7003;20067;48.764;9.176;2022-10-30T08:55:49;11.25;10.50;6.00
26185;PMS7003;20067;48.764;9.176;2022-10-30T08:58:17;13.25;12.25;5.75
26185;PMS7003;20067;48.764;9.176;2022-10-30T09:00:42;13.25;13.00;7.25
26185;PMS7003;20067;48.764;9.176;2022-10-30T09:03:09;15.25;14.00;7.75
26185;PMS7003;20067;48.764;9.176;2022-10-30T09:05:35;13.25;11.50;7.00
26185;PMS7003;20067;48.764;9.176;2022-10-30T09:08:01;14.00;12.75;7.75
26185;PMS7003;20067;48.764;9.176;2022-10-30T09:10:28;12.00;10.75;6.00
26185;PMS7003;20067;48.764;9.176;2022-10-30T09:12:55;14.25;12.75;8.00
26185;PMS7003;20067;48.764;9.176;2022-10-30T09:15:21;13.50;13.00;7.75
26185;PMS7003;20067;48.764;9.176;2022-10-30T09:17:53;17.00;14.25;9.25
26185;PMS7003;20067;48.764;9.176;2022-10-30T09:20:23;14.50;14.25;8.50
26185;PMS7003;20067;48.764;9.176;2022-10-30T09:22:50;16.50;13.25;9.25
26185;PMS7003;20067;48.764;9.176;2022-10-30T09:25:15;12.00;12.00;7.25
26185;PMS7003;20067;48.764;9.176;2022-10-30T09:27:41;15.00;14.00;8.75
26185;PMS7003;20067;48.764;9.176;2022-10-30T09:30:07;17.75;15.50;8.25
26185;PMS7003;20067;48.764;9.176;2022-10-30T09:32:33;15.50;14.00;8.00
26185;PMS7003;20067;48.764;9.176;2022-10-30T09:34:59;14.75;14.50;9.00
26185;PMS7003;20067;48.764;9.176;2022-10-30T09:37:25;20.00;18.00;11.25
26185;PMS7003;20067;48.764;9.176;2022-10-30T09:39:58;18.75;16.00;10.00
26185;PMS7003;20067;48.764;9.176;2022-10-30T09:45:41;20.25;18.50;12.00
26185;PMS7003;20067;48.764;9.176;2022-10-30T10:04:00;18.75;16.25;10.50
26185;PMS7003;20067;48.764;9.176;2022-10-30T10:06:49;16.50;15.00;9.50
26185;PMS7003;20067;48.764;9.176;2022-10-30T10:09:25;15.75;14.25;8.25
26185;PMS7003;20067;48.764;9.176;2022-10-30T10:12:29;14.25;13.00;8.00
26185;PMS7003;20067;48.764;9.176;2022-10-30T10:14:57;20.75;17.50;9.00
26185;PMS7003;20067;48.764;9.176;2022-10-30T10:17:30;17.50;15.25;8.25
26185;PMS7003;20067;48.764;9.176;2022-10-30T10:20:00;17.00;16.75;8.00
26185;PMS7003;20067;48.764;9.176;2022-10-30T10:22:40;20.50;16.00;9.00
26185;PMS7003;20067;48.764;9.176;2022-10-30T10:25:15;15.00;15.00;9.00
26185;PMS7003;20067;48.764;9.176;2022-10-30T10:30:29;15.25;13.25;7.75
26185;PMS7003;20067;48.764;9.176;2022-10-30T10:36:29;15.00;14.25;9.00
26185;PMS7003;20067;48.764;9.176;2022-10-30T10:42:29;14.25;14.25;8.25
26185;PMS7003;20067;48.764;9.176;2022-10-30T10:50:45;16.50;16.25;9.00
26185;PMS7003;20067;48.764;9.176;2022-10-30T10:53:25;15.00;14.25;8.25
26185;PMS7003;20067;48.764;9.176;2022-10-30T10:56:12;15.50;13.75;8.75
26185;PMS7003;20067;48.764;9.176;2022-10-30T10:58:47;15.00;14.00;8.00
26185;PMS7003;20067;48.764;9.176;2022-10-30T11:01:45;14.50;14.00;8.50
26185;PMS7003;20067;48.764;9.176;2022-10-30T11:04:28;15.50;14.25;8.00
26185;PMS7003;20067;48.764;9.176;2022-10-30T11:07:18;14.00;13.00;8.75
26185;PMS7003;20067;48.764;9.176;2022-10-30T11:09:45;15.25;13.75;9.00
26185;PMS7003;20067;48.764;9.176;2022-10-30T11:12:15;14.00;13.00;8.75
26185;PMS7003;20067;48.764;9.176;2022-10-30T11:14:43;14.50;13.25;8.75
26185;PMS7003;20067;48.764;9.176;2022-10-30T11:17:12;27.25;17.75;9.00
26185;PMS7003;20067;48.764;9.176;2022-10-30T11:19:44;23.00;20.75;9.50
26185;PMS7003;20067;48.764;9.176;2022-10-30T11:22:17;15.00;14.00;10.00
26185;PMS7003;20067;48.764;9.176;2022-10-30T11:24:48;16.75;14.00;9.00
26185;PMS7003;20067;48.764;9.176;2022-10-30T11:29:55;16.25;14.75;9.00
26185;PMS7003;20067;48.764;9.176;2022-10-30T11:32:28;16.50;14.75;9.50
26185;PMS7003;20067;48.764;9.176;2022-10-30T11:37:33;16.50;15.50;9.75
26185;PMS7003;20067;48.764;9.176;2022-10-30T11:40:03;20.75;17.00;9.00
26185;PMS7003;20067;48.764;9.176;2022-10-30T11:42:32;15.75;15.00;7.75
26185;PMS7003;20067;48.764;9.176;2022-10-30T11:44:59;15.25;15.00;9.00
26185;PMS7003;20067;48.764;9.176;2022-10-30T11:47:30;17.25;17.00;10.00
26185;PMS7003;20067;48.764;9.176;2022-10-30T11:49:59;15.25;14.25;9.25
26185;PMS7003;20067;48.764;9.176;2022-10-30T11:52:26;15.75;14.50;9.25
26185;PMS7003;20067;48.764;9.176;2022-10-30T11:54:56;16.50;14.25;8.00
26185;PMS7003;20067;48.764;9.176;2022-10-30T11:57:32;16.00;15.25;11.00
26185;PMS7003;20067;48.764;9.176;2022-10-30T12:00:03;14.50;13.00;8.00
26185;PMS7003;20067;48.764;9.176;2022-10-30T12:02:43;15.25;14.00;9.50
26185;PMS7003;20067;48.764;9.176;2022-10-30T12:05:27;19.75;16.75;11.00
26185;PMS7003;20067;48.764;9.176;2022-10-30T12:07:54;20.75;16.25;11.00
26185;PMS7003;20067;48.764;9.176;2022-10-30T12:10:58;17.00;15.50;10.50
26185;PMS7003;20067;48.764;9.176;2022-10-30T12:13:25;18.00;18.00;11.00
26185;PMS7003;20067;48.764;9.176;2022-10-30T12:18:57;21.00;17.50;10.75
26185;PMS7003;20067;48.764;9.176;2022-10-30T12:21:29;20.00;17.50;10.50
26185;PMS7003;20067;48.764;9.176;2022-10-30T12:24:01;17.75;16.00;10.00
26185;PMS7003;20067;48.764;9.176;2022-10-30T12:26:33;19.25;16.75;10.75
26185;PMS7003;20067;48.764;9.176;2022-10-30T12:29:02;18.25;17.00;11.75
26185;PMS7003;20067;48.764;9.176;2022-10-30T12:31:39;21.75;20.50;11.75
26185;PMS7003;20067;48.764;9.176;2022-10-30T12:36:53;18.50;15.00;9.50
26185;PMS7003;20067;48.764;9.176;2022-10-30T12:39:45;22.25;17.75;10.00
26185;PMS7003;20067;48.764;9.176;2022-10-30T12:42:39;15.75;14.75;8.00
26185;PMS7003;20067;48.764;9.176;2022-10-30T12:47:54;16.75;16.25;9.00
26185;PMS7003;20067;48.764;9.176;2022-10-30T12:53:06;17.50;15.75;9.00
26185;PMS7003;20067;48.764;9.176;2022-10-30T12:55:40;17.25;15.00;9.50
26185;PMS7003;20067;48.764;9.176;2022-10-30T13:00:48;18.50;17.25;9.00
26185;PMS7003;20067;48.764;9.176;2022-10-30T13:03:22;21.25;18.00;10.25
26185;PMS7003;20067;48.764;9.176;2022-10-30T13:05:55;18.75;17.00;8.75
26185;PMS7003;20067;48.764;9.176;2022-10-30T13:13:31;18.75;17.50;12.00
26185;PMS7003;20067;48.764;9.176;2022-10-30T13:16:02;19.50;17.00;11.00
26185;PMS7003;20067;48.764;9.176;2022-10-30T13:18:38;19.00;18.00;10.00
26185;PMS7003;20067;48.764;9.176;2022-10-30T13:23:47;19.50;16.00;10.25
26185;PMS7003;20067;48.764;9.176;2022-10-30T13:34:29;17.50;15.25;9.25
26185;PMS7003;20067;48.764;9.176;2022-10-30T13:52:59;18.00;16.25;10.00
26185;PMS7003;20067;48.764;9.176;2022-10-30T13:55:30;16.50;16.50;11.00
26185;PMS7003;20067;48.764;9.176;2022-10-30T13:58:00;18.00;16.75;10.25
26185;PMS7003;20067;48.764;9.176;2022-10-30T14:11:19;15.75;15.75;11.00
26185;PMS7003;20067;48.764;9.176;2022-10-30T14:14:02;19.75;16.25;10.75
26185;PMS7003;20067;48.764;9.176;2022-10-30T14:17:10;21.75;18.00;9.50
26185;PMS7003;20067;48.764;9.176;2022-10-30T14:22:29;15.75;15.00;10.00
26185;PMS7003;20067;48.764;9.176;2022-10-30T14:24:56;21.25;17.25;11.00
26185;PMS7003;20067;48.764;9.176;2022-10-30T14:27:30;19.25;16.00;11.00
26185;PMS7003;20067;48.764;9.176;2022-10-30T14:29:57;16.50;15.00;10.75
26185;PMS7003;20067;48.764;9.176;2022-10-30T14:39:47;10.75;9.00;4.25
26185;PMS7003;20067;48.764;9.176;2022-10-30T14:42:22;11.00;9.75;3.50
26185;PMS7003;20067;48.764;9.176;2022-10-30T14:58:29;8.00;8.00;3.50
26185;PMS7003;20067;48.764;9.176;2022-10-30T15:06:33;8.75;8.75;2.25
26185;PMS7003;20067;48.764;9.176;2022-10-30T15:11:59;12.00;8.75;3.00
26185;PMS7003;20067;48.764;9.176;2022-10-30T15:17:01;8.25;7.00;3.00
26185;PMS7003;20067;48.764;9.176;2022-10-30T15:19:27;9.25;8.75;3.50
26185;PMS7003;20067;48.764;9.176;2022-10-30T15:21:55;10.00;8.00;3.25
26185;PMS7003;20067;48.764;9.176;2022-10-30T15:24:22;11.25;9.00;3.25
26185;PMS7003;20067;48.764;9.176;2022-10-30T15:26:55;9.00;8.75;4.00
26185;PMS7003;20067;48.764;9.176;2022-10-30T15:29:26;7.25;7.00;3.00
26185;PMS7003;20067;48.764;9.176;2022-10-30T15:34:25;10.00;8.00;4.00
26185;PMS7003;20067;48.764;9.176;2022-10-30T15:36:55;8.75;8.25;4.00
26185;PMS7003;20067;48.764;9.176;2022-10-30T15:39:21;11.25;10.00;4.00
26185;PMS7003;20067;48.764;9.176;2022-10-30T15:44:22;10.50;9.50;6.00
26185;PMS7003;20067;48.764;9.176;2022-10-30T15:46:51;13.00;11.00;5.00
26185;PMS7003;20067;48.764;9.176;2022-10-30T15:49:32;11.00;9.75;6.00
26185;PMS7003;20067;48.764;9.176;2022-10-30T15:52:00;11.50;9.25;6.00
26185;PMS7003;20067;48.764;9.176;2022-10-30T15:54:37;11.25;8.75;5.00
26185;PMS7003;20067;48.764;9.176;2022-10-30T15:57:10;12.75;10.50;6.00
26185;PMS7003;20067;48.764;9.176;2022-10-30T15:59:48;16.00;15.00;7.75
26185;PMS7003;20067;48.764;9.176;2022-10-30T16:02:20;16.00;13.00;8.00
26185;PMS7003;20067;48.764;9.176;2022-10-30T16:04:47;17.00;16.00;9.50
26185;PMS7003;20067;48.764;9.176;2022-10-30T16:07:18;16.75;14.75;7.75
26185;PMS7003;20067;48.764;9.176;2022-10-30T16:09:52;16.50;15.00;7.00
26185;PMS7003;20067;48.764;9.176;2022-10-30T16:12:26;15.50;13.25;8.25
26185;PMS7003;20067;48.764;9.176;2022-10-30T16:14:54;20.50;16.00;8.75
26185;PMS7003;20067;48.764;9.176;2022-10-30T16:17:21;19.50;17.50;9.00
26185;PMS7003;20067;48.764;9.176;2022-10-30T16:19:50;13.50;11.00;6.75
26185;PMS7003;20067;48.764;9.176;2022-10-30T16:22:24;16.50;13.50;7.00
26185;PMS7003;20067;48.764;9.176;2022-10-30T16:24:52;17.50;16.00;8.00
26185;PMS7003;20067;48.764;9.176;2022-10-30T16:27:21;17.25;15.75;8.00
26185;PMS7003;20067;48.764;9.176;2022-10-30T16:29:51;13.00;12.25;6.25
26185;PMS7003;20067;48.764;9.176;2022-10-30T16:32:26;14.00;12.00;6.75
26185;PMS7003;20067;48.764;9.176;2022-10-30T16:34:58;15.00;12.75;8.00
26185;PMS7003;20067;48.764;9.176;2022-10-30T16:37:36;12.50;12.25;6.75
26185;PMS7003;20067;48.764;9.176;2022-10-30T16:40:11;12.75;12.00;6.00
26185;PMS7003;20067;48.764;9.176;2022-10-30T16:42:39;13.50;11.00;6.75
26185;PMS7003;20067;48.764;9.176;2022-10-30T16:47:37;14.00;13.00;7.00
26185;PMS7003;20067;48.764;9.176;2022-10-30T16:50:09;15.25;15.25;7.75
26185;PMS7003;20067;48.764;9.176;2022-10-30T16:52:39;16.25;14.75;9.75